Time;durP1;ratioP1;P1;durP2;ratioP2;P2;SDS_P1;SDS_P2;PMS_P1;PMS_P2;Temp;Humidity;BMP_temperature;BMP_pressure;BME280_temperature;BME280_humidity;BME280_pressure;Samples;Min_cycle;Max_cycle;Signal;HPM_P1;HPM_P2
2023/06/18 00:00:07;;;;;;;5.25;3.33;;;;;;;;;;5034713;28;20408;-87
2023/06/18 00:02:33;;;;;;;6.70;4.25;;;;;;;;;;5032258;28;20021;-86
2023/06/18 00:04:58;;;;;;;2.83;2.08;;;;;;;;;;5036348;28;20017;-85
2023/06/18 00:07:24;;;;;;;5.05;3.35;;;;;;;;;;5038632;28;20020;-88
2023/06/18 00:09:49;;;;;;;3.83;3.17;;;;;;;;;;5053859;28;20025;-86
2023/06/18 00:12:15;;;;;;;5.65;2.92;;;;;;;;;;5053009;28;20112;-86
2023/06/18 00:14:40;;;;;;;3.75;2.97;;;;;;;;;;5037219;28;20036;-84
2023/06/18 00:17:06;;;;;;;5.00;3.08;;;;;;;;;;5049272;28;20480;-88
2023/06/18 00:19:32;;;;;;;3.60;2.65;;;;;;;;;;5033889;28;20017;-86
2023/06/18 00:22:02;;;;;;;5.13;2.60;;;;;;;;;;5050117;28;20033;-83
2023/06/18 00:24:27;;;;;;;4.40;3.67;;;;;;;;;;5030526;28;20059;-85
2023/06/18 00:26:53;;;;;;;4.57;3.33;;;;;;;;;;5052533;28;20075;-85
2023/06/18 00:29:18;;;;;;;5.40;3.22;;;;;;;;;;5034934;28;20037;-86
2023/06/18 00:31:47;;;;;;;4.95;2.95;;;;;;;;;;5052253;28;20376;-89
2023/06/18 00:34:14;;;;;;;3.25;2.90;;;;;;;;;;5051853;28;20029;-87
2023/06/18 00:36:43;;;;;;;5.30;2.75;;;;;;;;;;5050699;28;20047;-86
2023/06/18 00:39:12;;;;;;;5.70;3.15;;;;;;;;;;5033970;28;20024;-85
2023/06/18 00:41:37;;;;;;;4.65;3.53;;;;;;;;;;5030470;28;20116;-86
2023/06/18 00:44:03;;;;;;;4.25;2.45;;;;;;;;;;5033903;28;20108;-86
2023/06/18 00:46:35;;;;;;;4.63;2.33;;;;;;;;;;5052420;28;20025;-85
2023/06/18 00:49:01;;;;;;;6.45;3.58;;;;;;;;;;5048774;28;20108;-84
2023/06/18 00:51:27;;;;;;;5.53;3.42;;;;;;;;;;5034002;28;20059;-86
2023/06/18 00:53:54;;;;;;;7.97;4.45;;;;;;;;;;5053052;28;20063;-84
2023/06/18 00:56:22;;;;;;;6.70;4.35;;;;;;;;;;5052121;28;20048;-86
2023/06/18 00:58:47;;;;;;;6.07;4.10;;;;;;;;;;5034017;28;20025;-85
2023/06/18 01:01:14;;;;;;;8.10;4.53;;;;;;;;;;5052636;28;20443;-84
2023/06/18 01:03:47;;;;;;;4.72;2.78;;;;;;;;;;5051363;28;20548;-86
2023/06/18 01:06:17;;;;;;;4.80;3.38;;;;;;;;;;5035391;28;20024;-85
2023/06/18 01:08:48;;;;;;;6.75;3.50;;;;;;;;;;5030768;28;20039;-87
2023/06/18 01:11:18;;;;;;;5.18;3.22;;;;;;;;;;5053298;28;20504;-86
2023/06/18 01:13:44;;;;;;;7.38;4.00;;;;;;;;;;5033481;28;20032;-86
2023/06/18 01:16:10;;;;;;;4.70;3.50;;;;;;;;;;5034852;28;20031;-86
2023/06/18 01:18:45;;;;;;;5.28;3.67;;;;;;;;;;5033566;28;20021;-82
2023/06/18 01:21:13;;;;;;;7.38;3.80;;;;;;;;;;5038923;28;20032;-83
2023/06/18 01:23:49;;;;;;;6.40;4.85;;;;;;;;;;5041101;28;20058;-86
2023/06/18 01:26:20;;;;;;;4.95;4.15;;;;;;;;;;5054562;28;20460;-85
2023/06/18 01:28:58;;;;;;;5.50;3.13;;;;;;;;;;5035369;28;20484;-85
2023/06/18 01:31:25;;;;;;;8.35;6.00;;;;;;;;;;5057751;28;20483;-87
2023/06/18 01:33:51;;;;;;;6.18;4.30;;;;;;;;;;5038216;28;20468;-86
2023/06/18 01:36:34;;;;;;;4.00;3.40;;;;;;;;;;5055422;28;20041;-84
2023/06/18 01:39:07;;;;;;;5.07;4.03;;;;;;;;;;5036611;28;20075;-86
2023/06/18 01:41:36;;;;;;;3.53;2.63;;;;;;;;;;5055222;28;20021;-87
2023/06/18 01:44:08;;;;;;;4.23;3.30;;;;;;;;;;5051394;28;20491;-87
2023/06/18 01:46:34;;;;;;;6.20;4.28;;;;;;;;;;5050785;28;20021;-85
2023/06/18 01:49:07;;;;;;;7.60;5.55;;;;;;;;;;5037832;28;20464;-83
2023/06/18 01:51:35;;;;;;;5.85;3.83;;;;;;;;;;5036849;28;20056;-84
2023/06/18 01:54:03;;;;;;;4.97;3.63;;;;;;;;;;5034851;28;20021;-83
2023/06/18 01:56:29;;;;;;;4.25;2.72;;;;;;;;;;5037162;28;20021;-83
2023/06/18 01:58:55;;;;;;;5.00;3.30;;;;;;;;;;5038145;28;20029;-86
2023/06/18 02:01:21;;;;;;;6.70;4.13;;;;;;;;;;5054637;28;20469;-85
2023/06/18 02:03:47;;;;;;;7.15;4.53;;;;;;;;;;5037539;28;20031;-83
2023/06/18 02:06:13;;;;;;;4.30;3.58;;;;;;;;;;5039795;28;20028;-85
2023/06/18 02:08:38;;;;;;;6.05;4.30;;;;;;;;;;5054064;28;20112;-85
2023/06/18 02:11:04;;;;;;;7.72;5.57;;;;;;;;;;5035126;28;20091;-84
2023/06/18 02:13:30;;;;;;;5.05;3.85;;;;;;;;;;5054906;28;20075;-85
2023/06/18 02:15:55;;;;;;;6.22;4.72;;;;;;;;;;5038045;28;20029;-86
2023/06/18 02:18:21;;;;;;;2.80;2.35;;;;;;;;;;5036574;28;20452;-86
2023/06/18 02:20:46;;;;;;;4.10;3.17;;;;;;;;;;5036176;28;20029;-88
2023/06/18 02:23:12;;;;;;;7.63;4.38;;;;;;;;;;5035484;28;20027;-83
2023/06/18 02:25:37;;;;;;;4.95;3.75;;;;;;;;;;5054219;28;20029;-84
2023/06/18 02:28:04;;;;;;;6.10;4.38;;;;;;;;;;5035049;28;20032;-86
2023/06/18 02:30:29;;;;;;;7.65;5.50;;;;;;;;;;5034123;28;20021;-86
2023/06/18 02:32:59;;;;;;;4.75;4.15;;;;;;;;;;5035869;28;20040;-86
2023/06/18 02:35:26;;;;;;;6.03;4.50;;;;;;;;;;5050654;28;20024;-88
2023/06/18 02:37:56;;;;;;;3.92;3.53;;;;;;;;;;5035279;28;20124;-87
2023/06/18 02:40:22;;;;;;;5.80;4.22;;;;;;;;;;5035338;28;20342;-86
2023/06/18 02:43:06;;;;;;;5.05;3.35;;;;;;;;;;5055666;28;20127;-87
2023/06/18 02:45:42;;;;;;;5.22;3.05;;;;;;;;;;5053973;28;20024;-86
2023/06/18 02:48:13;;;;;;;5.65;3.53;;;;;;;;;;5053802;28;20119;-90
2023/06/18 02:50:43;;;;;;;6.55;4.28;;;;;;;;;;5055219;28;20061;-87
2023/06/18 02:53:18;;;;;;;4.15;3.45;;;;;;;;;;5035567;28;20484;-87
2023/06/18 02:56:01;;;;;;;7.00;3.90;;;;;;;;;;5037117;28;20029;-87
2023/06/18 02:58:47;;;;;;;6.25;3.38;;;;;;;;;;5029952;28;20037;-87
2023/06/18 03:01:12;;;;;;;6.03;3.97;;;;;;;;;;5054255;28;20086;-90
2023/06/18 03:03:40;;;;;;;5.00;3.95;;;;;;;;;;5038247;28;20524;-86
2023/06/18 03:06:09;;;;;;;6.05;3.15;;;;;;;;;;5033968;28;20469;-85
2023/06/18 03:08:35;;;;;;;5.97;4.47;;;;;;;;;;5037306;28;20051;-83
2023/06/18 03:11:00;;;;;;;3.92;2.88;;;;;;;;;;5056125;28;20454;-86
2023/06/18 03:13:35;;;;;;;5.03;3.65;;;;;;;;;;5054705;28;20044;-85
2023/06/18 03:16:00;;;;;;;6.18;4.30;;;;;;;;;;5042696;28;20056;-86
2023/06/18 03:18:26;;;;;;;3.17;1.95;;;;;;;;;;5033615;28;20059;-86
2023/06/18 03:20:54;;;;;;;6.18;3.50;;;;;;;;;;5054388;28;20028;-87
2023/06/18 03:23:21;;;;;;;3.65;2.67;;;;;;;;;;5035495;28;20021;-88
2023/06/18 03:25:46;;;;;;;4.78;4.28;;;;;;;;;;5052654;28;20025;-87
2023/06/18 03:28:15;;;;;;;4.25;3.35;;;;;;;;;;5054935;28;20098;-88
2023/06/18 03:30:41;;;;;;;4.70;3.25;;;;;;;;;;5035046;28;20033;-85
2023/06/18 03:33:08;;;;;;;7.18;4.40;;;;;;;;;;5053684;28;20033;-88
2023/06/18 03:35:36;;;;;;;5.63;4.38;;;;;;;;;;5035232;28;20024;-87
2023/06/18 03:38:02;;;;;;;5.75;4.05;;;;;;;;;;5053028;28;20419;-87
2023/06/18 03:40:28;;;;;;;8.15;5.43;;;;;;;;;;5055461;28;20029;-86
2023/06/18 03:42:53;;;;;;;4.55;3.60;;;;;;;;;;5038059;28;20127;-87
2023/06/18 03:45:19;;;;;;;2.63;1.25;;;;;;;;;;5036927;28;20032;-85
2023/06/18 03:47:44;;;;;;;3.72;3.20;;;;;;;;;;5057293;28;20025;-87
2023/06/18 03:50:10;;;;;;;4.75;3.53;;;;;;;;;;5053529;28;20044;-88
2023/06/18 03:52:39;;;;;;;4.40;3.40;;;;;;;;;;5036058;28;20029;-88
2023/06/18 03:55:05;;;;;;;4.40;2.58;;;;;;;;;;5052004;28;20032;-85
2023/06/18 03:57:31;;;;;;;6.28;5.15;;;;;;;;;;5055204;28;20044;-90
2023/06/18 03:59:57;;;;;;;4.10;3.17;;;;;;;;;;5048608;28;20025;-85
2023/06/18 04:02:22;;;;;;;6.93;4.75;;;;;;;;;;5030439;28;20029;-86
2023/06/18 04:04:48;;;;;;;6.20;5.45;;;;;;;;;;5030163;28;20036;-86
2023/06/18 04:07:13;;;;;;;5.40;3.60;;;;;;;;;;5051231;28;20029;-89
2023/06/18 04:09:39;;;;;;;8.35;4.70;;;;;;;;;;5034573;28;20074;-88
2023/06/18 04:12:06;;;;;;;4.78;3.58;;;;;;;;;;5034630;28;20365;-90
2023/06/18 04:14:35;;;;;;;6.50;4.22;;;;;;;;;;5035366;28;20032;-87
2023/06/18 04:17:04;;;;;;;5.43;4.00;;;;;;;;;;5052234;28;20110;-89
2023/06/18 04:19:54;;;;;;;10.45;5.65;;;;;;;;;;5033936;28;20726;-90
2023/06/18 04:22:26;;;;;;;4.60;3.15;;;;;;;;;;5059300;28;20033;-90
2023/06/18 04:25:25;;;;;;;5.30;3.45;;;;;;;;;;5032894;28;20040;-92
2023/06/18 04:27:57;;;;;;;5.03;3.53;;;;;;;;;;5054877;28;20033;-90
2023/06/18 04:30:28;;;;;;;4.30;2.67;;;;;;;;;;5032283;28;20037;-92
2023/06/18 04:33:11;;;;;;;6.25;4.20;;;;;;;;;;5052855;28;20051;-89
2023/06/18 04:35:37;;;;;;;8.55;4.25;;;;;;;;;;5023303;28;20117;-89
2023/06/18 04:38:11;;;;;;;4.47;4.03;;;;;;;;;;5055775;28;20064;-90
2023/06/18 04:40:51;;;;;;;4.13;2.92;;;;;;;;;;5036400;28;20385;-91
2023/06/18 04:43:18;;;;;;;4.60;3.75;;;;;;;;;;5014068;28;20417;-91
2023/06/18 04:45:51;;;;;;;5.95;3.58;;;;;;;;;;5033581;28;20534;-88
2023/06/18 04:48:19;;;;;;;4.88;4.22;;;;;;;;;;5051628;28;20040;-88
2023/06/18 04:50:45;;;;;;;4.63;3.78;;;;;;;;;;5052267;28;20045;-89
2023/06/18 04:53:10;;;;;;;4.72;3.80;;;;;;;;;;5037758;28;20048;-90
2023/06/18 04:55:39;;;;;;;4.97;3.55;;;;;;;;;;5054643;28;20091;-90
2023/06/18 04:58:04;;;;;;;4.70;3.92;;;;;;;;;;5054494;28;20029;-86
2023/06/18 05:00:31;;;;;;;4.72;3.10;;;;;;;;;;5049295;28;20070;-88
2023/06/18 05:03:00;;;;;;;5.28;3.55;;;;;;;;;;5052053;28;20063;-84
2023/06/18 05:05:26;;;;;;;3.90;3.17;;;;;;;;;;5036673;28;20028;-82
2023/06/18 05:07:52;;;;;;;4.32;3.20;;;;;;;;;;5054773;28;20549;-85
2023/06/18 05:10:17;;;;;;;4.97;4.00;;;;;;;;;;5036299;28;20388;-84
2023/06/18 05:12:43;;;;;;;4.07;3.30;;;;;;;;;;5046080;28;20100;-87
2023/06/18 05:15:09;;;;;;;4.40;3.67;;;;;;;;;;5051693;28;20024;-86
2023/06/18 05:17:35;;;;;;;5.63;3.60;;;;;;;;;;5034062;28;20108;-83
2023/06/18 05:20:01;;;;;;;2.92;2.13;;;;;;;;;;5052067;28;20381;-85
2023/06/18 05:22:26;;;;;;;6.38;4.25;;;;;;;;;;5052450;28;20025;-88
2023/06/18 05:24:52;;;;;;;3.72;2.92;;;;;;;;;;5053410;28;20384;-87
2023/06/18 05:27:17;;;;;;;2.95;2.53;;;;;;;;;;5036901;28;20024;-85
2023/06/18 05:29:43;;;;;;;5.00;2.67;;;;;;;;;;5052315;28;20032;-85
2023/06/18 05:32:09;;;;;;;3.83;2.63;;;;;;;;;;5041168;28;20040;-91
2023/06/18 05:34:35;;;;;;;1.55;1.33;;;;;;;;;;5054421;28;20140;-89
2023/06/18 05:37:00;;;;;;;4.55;3.10;;;;;;;;;;5049799;28;20103;-88
2023/06/18 05:39:26;;;;;;;4.82;3.40;;;;;;;;;;5051644;28;20020;-86
2023/06/18 05:41:52;;;;;;;3.53;2.55;;;;;;;;;;5043829;28;20057;-88
2023/06/18 05:44:18;;;;;;;2.05;1.85;;;;;;;;;;5053149;28;20427;-88
2023/06/18 05:46:43;;;;;;;6.78;4.28;;;;;;;;;;5053860;28;20480;-86
2023/06/18 05:49:09;;;;;;;4.45;4.03;;;;;;;;;;5034247;28;20051;-87
2023/06/18 05:51:35;;;;;;;3.90;2.53;;;;;;;;;;5050329;28;20448;-87
2023/06/18 05:54:01;;;;;;;3.63;2.65;;;;;;;;;;5050244;28;20064;-88
2023/06/18 05:56:26;;;;;;;4.68;3.53;;;;;;;;;;5053432;28;20025;-85
2023/06/18 05:58:53;;;;;;;4.75;2.92;;;;;;;;;;5034152;28;20087;-85
2023/06/18 06:01:18;;;;;;;3.22;2.08;;;;;;;;;;5033928;28;20028;-86
2023/06/18 06:03:44;;;;;;;5.10;3.17;;;;;;;;;;5052737;28;20025;-88
2023/06/18 06:06:09;;;;;;;6.65;3.67;;;;;;;;;;5032508;28;20021;-85
2023/06/18 06:08:35;;;;;;;7.78;4.38;;;;;;;;;;5051582;28;20029;-85
2023/06/18 06:11:01;;;;;;;5.43;3.15;;;;;;;;;;5034600;28;20033;-88
2023/06/18 06:13:26;;;;;;;2.42;2.10;;;;;;;;;;5029505;28;20056;-89
2023/06/18 06:15:52;;;;;;;6.13;3.63;;;;;;;;;;5048270;28;20280;-88
2023/06/18 06:18:17;;;;;;;3.67;2.92;;;;;;;;;;5035045;28;20033;-88
2023/06/18 06:20:43;;;;;;;5.50;3.55;;;;;;;;;;5053953;28;20474;-85
2023/06/18 06:23:08;;;;;;;3.33;2.80;;;;;;;;;;5053363;28;20033;-88
2023/06/18 06:25:34;;;;;;;5.97;3.83;;;;;;;;;;5053622;28;20025;-89
2023/06/18 06:27:59;;;;;;;3.92;2.67;;;;;;;;;;5032033;28;20036;-88
2023/06/18 06:30:24;;;;;;;7.30;4.25;;;;;;;;;;5033716;28;20031;-90
2023/06/18 06:32:50;;;;;;;5.70;3.33;;;;;;;;;;5033717;28;20029;-87
2023/06/18 06:35:16;;;;;;;2.35;2.13;;;;;;;;;;5033574;28;20070;-90
2023/06/18 06:37:42;;;;;;;2.30;2.00;;;;;;;;;;5033535;28;20091;-89
2023/06/18 06:40:09;;;;;;;4.55;2.42;;;;;;;;;;5053676;28;20025;-90
2023/06/18 06:42:35;;;;;;;4.10;3.05;;;;;;;;;;5050550;28;20078;-88
2023/06/18 06:45:09;;;;;;;3.60;2.35;;;;;;;;;;5054064;28;20117;-88
2023/06/18 06:47:35;;;;;;;6.13;3.33;;;;;;;;;;5034746;28;20026;-88
2023/06/18 06:50:00;;;;;;;3.70;2.15;;;;;;;;;;5035063;28;20045;-88
2023/06/18 06:52:26;;;;;;;3.40;2.75;;;;;;;;;;5033885;28;20033;-89
2023/06/18 06:54:51;;;;;;;6.95;3.20;;;;;;;;;;5052698;28;20036;-89
2023/06/18 06:57:17;;;;;;;3.83;3.38;;;;;;;;;;5035739;28;20025;-87
2023/06/18 06:59:42;;;;;;;4.00;2.95;;;;;;;;;;5035116;28;20110;-87
2023/06/18 07:02:07;;;;;;;3.63;2.83;;;;;;;;;;5036753;28;20020;-87
2023/06/18 07:04:33;;;;;;;2.83;2.50;;;;;;;;;;5035637;28;20029;-89
2023/06/18 07:06:58;;;;;;;4.05;3.40;;;;;;;;;;5051330;28;20035;-88
2023/06/18 07:09:24;;;;;;;5.95;3.92;;;;;;;;;;5052026;28;20389;-90
2023/06/18 07:11:49;;;;;;;2.83;2.25;;;;;;;;;;5052204;28;20051;-87
2023/06/18 07:14:15;;;;;;;5.40;3.35;;;;;;;;;;5031483;28;20456;-88
2023/06/18 07:16:40;;;;;;;5.22;3.03;;;;;;;;;;5051825;28;20028;-89
2023/06/18 07:19:06;;;;;;;3.63;2.50;;;;;;;;;;5049680;28;20025;-90
2023/06/18 07:21:31;;;;;;;5.35;3.35;;;;;;;;;;5053039;28;20053;-89
2023/06/18 07:23:58;;;;;;;2.83;2.33;;;;;;;;;;5050703;28;20025;-86
2023/06/18 07:26:23;;;;;;;3.67;2.25;;;;;;;;;;5027178;28;20381;-90
2023/06/18 07:29:01;;;;;;;5.15;3.28;;;;;;;;;;5035859;28;20029;-88
2023/06/18 07:31:26;;;;;;;3.95;2.92;;;;;;;;;;5047935;28;20021;-87
2023/06/18 07:33:53;;;;;;;7.63;4.10;;;;;;;;;;5051259;28;20388;-88
2023/06/18 07:36:18;;;;;;;3.97;2.83;;;;;;;;;;5051215;28;20033;-88
2023/06/18 07:38:48;;;;;;;5.22;3.38;;;;;;;;;;5044127;28;20797;-90
2023/06/18 07:41:13;;;;;;;4.55;3.03;;;;;;;;;;5034267;28;20029;-88
2023/06/18 07:43:40;;;;;;;6.03;4.32;;;;;;;;;;5030198;28;20048;-89
2023/06/18 07:46:06;;;;;;;4.45;3.05;;;;;;;;;;5052333;28;20400;-89
2023/06/18 07:48:32;;;;;;;3.22;2.33;;;;;;;;;;5033944;28;20028;-90
2023/06/18 07:50:57;;;;;;;3.65;2.70;;;;;;;;;;5050300;28;20133;-85
2023/06/18 07:53:23;;;;;;;5.22;3.47;;;;;;;;;;5034366;28;20074;-85
2023/06/18 07:55:49;;;;;;;6.38;4.05;;;;;;;;;;5034191;28;20108;-87
2023/06/18 07:58:14;;;;;;;2.58;1.92;;;;;;;;;;5052760;28;20067;-88
2023/06/18 08:00:40;;;;;;;4.30;3.10;;;;;;;;;;5051348;28;20028;-90
2023/06/18 08:03:05;;;;;;;2.90;2.05;;;;;;;;;;5043217;28;20107;-87
2023/06/18 08:05:31;;;;;;;3.63;2.03;;;;;;;;;;5033688;28;20028;-88
2023/06/18 08:07:58;;;;;;;6.07;3.42;;;;;;;;;;5052578;28;20263;-91
2023/06/18 08:10:24;;;;;;;4.68;3.08;;;;;;;;;;5033501;28;20106;-88
2023/06/18 08:12:49;;;;;;;4.85;3.00;;;;;;;;;;5051495;28;20484;-87
2023/06/18 08:15:15;;;;;;;5.72;3.22;;;;;;;;;;5034169;28;20115;-87
2023/06/18 08:17:40;;;;;;;3.30;3.00;;;;;;;;;;5047655;28;20107;-88
2023/06/18 08:20:06;;;;;;;3.95;3.47;;;;;;;;;;5048533;28;20109;-88
2023/06/18 08:22:32;;;;;;;5.47;2.65;;;;;;;;;;5033161;28;20029;-88
2023/06/18 08:25:02;;;;;;;3.00;2.28;;;;;;;;;;5031271;28;20044;-88
2023/06/18 08:27:28;;;;;;;3.10;2.28;;;;;;;;;;5034835;28;20029;-88
2023/06/18 08:29:53;;;;;;;4.00;3.05;;;;;;;;;;5034956;28;20035;-91
2023/06/18 08:32:19;;;;;;;4.15;2.90;;;;;;;;;;5056862;28;20495;-89
2023/06/18 08:34:45;;;;;;;3.53;2.67;;;;;;;;;;5055692;28;20055;-88
2023/06/18 08:37:11;;;;;;;3.22;2.80;;;;;;;;;;5035139;28;20032;-89
2023/06/18 08:39:42;;;;;;;3.85;3.00;;;;;;;;;;5057083;28;20104;-88
2023/06/18 08:42:08;;;;;;;3.70;2.88;;;;;;;;;;5037672;28;20396;-90
2023/06/18 08:44:34;;;;;;;5.57;3.30;;;;;;;;;;5038550;28;20102;-90
2023/06/18 08:47:03;;;;;;;4.07;2.75;;;;;;;;;;5040833;28;20029;-92
2023/06/18 08:49:33;;;;;;;4.60;3.22;;;;;;;;;;5055264;28;20032;-88
2023/06/18 08:52:00;;;;;;;2.92;2.17;;;;;;;;;;5053937;28;20033;-89
2023/06/18 08:54:34;;;;;;;2.92;2.25;;;;;;;;;;5035721;28;20029;-86
2023/06/18 08:57:29;;;;;;;3.60;2.80;;;;;;;;;;5051746;28;20029;-88
2023/06/18 08:59:57;;;;;;;3.53;2.83;;;;;;;;;;5033566;28;20021;-82
2023/06/18 09:02:24;;;;;;;4.43;3.25;;;;;;;;;;5037488;28;20024;-86
2023/06/18 09:04:50;;;;;;;4.25;2.90;;;;;;;;;;5036568;28;20033;-86
2023/06/18 09:07:16;;;;;;;4.57;2.97;;;;;;;;;;5034474;28;20052;-85
2023/06/18 09:09:42;;;;;;;6.20;3.38;;;;;;;;;;5036743;28;20080;-85
2023/06/18 09:12:07;;;;;;;3.38;1.95;;;;;;;;;;5050899;28;20033;-87
2023/06/18 09:14:34;;;;;;;3.53;2.42;;;;;;;;;;5041517;28;20502;-87
2023/06/18 09:16:59;;;;;;;3.05;1.70;;;;;;;;;;5034220;28;20426;-87
2023/06/18 09:19:25;;;;;;;3.78;2.83;;;;;;;;;;5054774;28;20108;-86
2023/06/18 09:21:51;;;;;;;3.38;2.47;;;;;;;;;;5047233;28;20037;-86
2023/06/18 09:24:22;;;;;;;5.40;3.70;;;;;;;;;;5049827;28;20123;-87
2023/06/18 09:26:50;;;;;;;4.72;2.92;;;;;;;;;;5053286;28;20023;-85
2023/06/18 09:29:15;;;;;;;3.30;1.70;;;;;;;;;;5054965;28;20107;-87
2023/06/18 09:31:47;;;;;;;3.15;2.17;;;;;;;;;;5035379;28;20466;-85
2023/06/18 09:34:20;;;;;;;2.55;1.90;;;;;;;;;;5059680;28;20055;-90
2023/06/18 09:36:52;;;;;;;3.95;2.90;;;;;;;;;;5038934;28;20111;-88
2023/06/18 09:42:42;;;;;;;;;;;;;;;;;;;;;
2023/06/18 09:45:23;;;;;;;5.35;2.40;;;;;;;;;;5030368;28;20036;-87
2023/06/18 09:48:12;;;;;;;;;;;;;;;;;;;;;
2023/06/18 09:50:38;;;;;;;4.00;2.72;;;;;;;;;;5048678;28;20044;-89
2023/06/18 09:53:51;;;;;;;2.53;1.67;;;;;;;;;;5036258;28;20124;-89
2023/06/18 09:57:07;;;;;;;;;;;;;;;;;;;;;
2023/06/18 10:03:12;;;;;;;2.85;2.22;;;;;;;;;;5054977;28;20109;-87
2023/06/18 10:12:12;;;;;;;2.17;1.67;;;;;;;;;;5035808;28;20090;-91
2023/06/18 10:14:40;;;;;;;4.53;2.30;;;;;;;;;;5048530;28;20056;-88
2023/06/18 10:17:34;;;;;;;3.05;2.30;;;;;;;;;;5049849;28;20037;-90
2023/06/18 10:20:03;;;;;;;3.80;3.08;;;;;;;;;;5040008;28;20440;-87
2023/06/18 10:22:34;;;;;;;3.65;2.60;;;;;;;;;;5048745;28;20029;-85
2023/06/18 10:25:06;;;;;;;2.63;1.98;;;;;;;;;;5045045;28;20489;-85
2023/06/18 10:27:33;;;;;;;3.40;2.58;;;;;;;;;;5050333;28;20025;-85
2023/06/18 10:29:59;;;;;;;5.00;2.92;;;;;;;;;;5057441;28;20040;-84
2023/06/18 10:32:27;;;;;;;3.78;3.17;;;;;;;;;;5049863;28;20024;-86
2023/06/18 10:34:54;;;;;;;1.88;1.60;;;;;;;;;;5036122;28;20062;-87
2023/06/18 10:37:25;;;;;;;3.40;2.20;;;;;;;;;;5039662;28;20047;-88
2023/06/18 10:39:55;;;;;;;3.78;2.22;;;;;;;;;;5053087;28;20029;-87
2023/06/18 10:42:21;;;;;;;;;;;;;;;;;;5062218;28;20041;-82
2023/06/18 10:44:55;;;;;;;2.40;1.65;;;;;;;;;;5035117;28;19939;-83
2023/06/18 10:47:24;;;;;;;2.42;1.77;;;;;;;;;;5049125;28;20032;-86
2023/06/18 10:50:07;;;;;;;3.40;2.22;;;;;;;;;;5035991;28;20036;-84
2023/06/18 10:52:37;;;;;;;1.58;1.48;;;;;;;;;;5046065;28;20054;-85
2023/06/18 10:55:18;;;;;;;;;;;;;;;;;;5050861;28;20048;-83
2023/06/18 10:57:47;;;;;;;2.70;1.83;;;;;;;;;;5034484;28;19920;-84
2023/06/18 11:00:13;;;;;;;;;;;;;;;;;;5054939;28;20078;-84
2023/06/18 11:02:39;;;;;;;2.30;1.73;;;;;;;;;;5036464;28;20003;-83
2023/06/18 11:05:05;;;;;;;1.23;1.00;;;;;;;;;;5037049;28;20063;-83
2023/06/18 11:07:31;;;;;;;1.38;1.27;;;;;;;;;;5054580;28;20025;-81
2023/06/18 11:10:04;;;;;;;2.25;1.92;;;;;;;;;;5040139;28;20052;-82
2023/06/18 11:12:35;;;;;;;2.45;1.60;;;;;;;;;;5057107;28;20032;-83
2023/06/18 11:15:15;;;;;;;1.27;1.15;;;;;;;;;;5037423;28;20476;-88
2023/06/18 11:17:49;;;;;;;1.92;1.30;;;;;;;;;;5034123;28;20028;-83
2023/06/18 11:20:16;;;;;;;1.20;1.10;;;;;;;;;;5031248;28;20021;-89
2023/06/18 11:22:42;;;;;;;1.45;1.27;;;;;;;;;;5053345;28;20032;-85
2023/06/18 11:25:10;;;;;;;1.70;1.50;;;;;;;;;;5034553;28;20025;-89
2023/06/18 11:27:40;;;;;;;2.55;1.90;;;;;;;;;;5052077;28;20078;-89
2023/06/18 11:30:07;;;;;;;1.65;1.45;;;;;;;;;;5049905;28;20028;-88
2023/06/18 11:32:32;;;;;;;2.53;1.42;;;;;;;;;;5049412;28;20033;-90
2023/06/18 11:35:00;;;;;;;2.13;1.70;;;;;;;;;;5051919;28;20108;-87
2023/06/18 11:37:27;;;;;;;2.08;1.25;;;;;;;;;;5034947;28;20377;-88
2023/06/18 11:39:56;;;;;;;1.52;1.13;;;;;;;;;;5035467;28;20052;-90
2023/06/18 11:42:25;;;;;;;2.20;1.67;;;;;;;;;;5052264;28;20021;-91
2023/06/18 11:44:58;;;;;;;2.25;1.85;;;;;;;;;;5033564;28;20452;-89
2023/06/18 11:47:24;;;;;;;1.77;1.35;;;;;;;;;;5030142;28;20037;-89
2023/06/18 11:49:51;;;;;;;2.10;1.40;;;;;;;;;;5031887;28;20020;-89
2023/06/18 11:52:24;;;;;;;0.80;0.80;;;;;;;;;;5052524;28;20053;-90
2023/06/18 11:54:50;;;;;;;3.92;1.77;;;;;;;;;;5052302;28;20036;-88
2023/06/18 11:57:18;;;;;;;1.90;1.42;;;;;;;;;;5052559;28;20025;-90
2023/06/18 11:59:45;;;;;;;2.83;1.77;;;;;;;;;;5051861;28;20397;-88
2023/06/18 12:02:21;;;;;;;1.65;1.25;;;;;;;;;;5031925;28;20534;-89
2023/06/18 12:04:47;;;;;;;1.92;1.38;;;;;;;;;;5028157;28;20029;-89
2023/06/18 12:07:17;;;;;;;1.75;1.35;;;;;;;;;;5032672;28;20419;-90
2023/06/18 12:09:44;;;;;;;1.83;1.25;;;;;;;;;;5034303;28;20539;-88
2023/06/18 12:12:41;;;;;;;2.20;1.73;;;;;;;;;;5031980;28;20472;-91
2023/06/18 12:15:13;;;;;;;2.22;1.73;;;;;;;;;;5049779;28;20350;-90
2023/06/18 12:18:01;;;;;;;3.08;1.98;;;;;;;;;;5048947;28;20544;-91
2023/06/18 12:20:28;;;;;;;1.75;1.17;;;;;;;;;;5043782;28;20032;-86
2023/06/18 12:23:00;;;;;;;1.15;1.02;;;;;;;;;;5035093;28;20040;-87
2023/06/18 12:25:28;;;;;;;1.10;1.00;;;;;;;;;;5031541;28;20025;-90
2023/06/18 12:27:55;;;;;;;1.67;1.30;;;;;;;;;;5049259;28;20078;-89
2023/06/18 12:30:29;;;;;;;1.25;1.00;;;;;;;;;;5037327;28;20112;-91
2023/06/18 12:33:10;;;;;;;1.45;1.25;;;;;;;;;;5034552;28;20036;-91
2023/06/18 12:35:36;;;;;;;4.93;1.35;;;;;;;;;;5049488;28;21268;-89
2023/06/18 12:38:05;;;;;;;0.90;0.88;;;;;;;;;;5033429;28;20053;-90
2023/06/18 12:40:31;;;;;;;1.50;1.40;;;;;;;;;;5048260;28;20108;-90
2023/06/18 12:42:59;;;;;;;1.42;1.33;;;;;;;;;;5034325;28;20072;-91
2023/06/18 12:45:27;;;;;;;1.70;1.40;;;;;;;;;;5033906;28;20115;-89
2023/06/18 12:47:53;;;;;;;0.90;0.80;;;;;;;;;;5049510;28;20029;-87
2023/06/18 12:50:27;;;;;;;0.93;0.93;;;;;;;;;;5051415;28;20091;-88
2023/06/18 12:52:52;;;;;;;2.10;1.00;;;;;;;;;;5052188;28;20037;-86
2023/06/18 12:55:18;;;;;;;1.73;1.27;;;;;;;;;;5046708;28;20079;-93
2023/06/18 12:57:48;;;;;;;1.65;1.27;;;;;;;;;;5032646;28;20511;-90
2023/06/18 13:00:21;;;;;;;2.83;1.40;;;;;;;;;;5051542;28;20028;-90
2023/06/18 13:02:48;;;;;;;1.38;1.02;;;;;;;;;;5043436;28;20067;-90
2023/06/18 13:05:14;;;;;;;1.65;1.17;;;;;;;;;;5033616;28;20029;-86
2023/06/18 13:07:50;;;;;;;1.30;1.15;;;;;;;;;;5032602;28;20032;-90
2023/06/18 13:10:19;;;;;;;1.38;1.10;;;;;;;;;;5046500;28;20026;-92
2023/06/18 13:12:46;;;;;;;1.25;1.15;;;;;;;;;;5034410;28;20461;-91
2023/06/18 13:15:11;;;;;;;1.88;1.48;;;;;;;;;;5049238;28;20025;-87
2023/06/18 13:17:37;;;;;;;2.97;1.13;;;;;;;;;;5036038;28;20522;-90
2023/06/18 13:20:04;;;;;;;2.08;1.27;;;;;;;;;;5050996;28;20039;-90
2023/06/18 13:22:29;;;;;;;1.60;1.50;;;;;;;;;;5045926;28;20029;-90
2023/06/18 13:24:57;;;;;;;1.48;1.30;;;;;;;;;;5052306;28;20358;-91
2023/06/18 13:27:24;;;;;;;1.08;0.98;;;;;;;;;;5055422;28;20016;-88
2023/06/18 13:29:50;;;;;;;2.00;1.17;;;;;;;;;;5049808;28;20033;-93
2023/06/18 13:32:15;;;;;;;1.40;1.05;;;;;;;;;;5050678;28;20043;-87
2023/06/18 13:34:44;;;;;;;2.80;1.30;;;;;;;;;;5037779;28;20025;-89
2023/06/18 13:37:09;;;;;;;1.50;1.10;;;;;;;;;;5055100;28;20064;-88
2023/06/18 13:39:35;;;;;;;2.15;1.50;;;;;;;;;;5053364;28;20449;-90
2023/06/18 13:42:00;;;;;;;1.77;1.23;;;;;;;;;;5037947;28;20366;-89
2023/06/18 13:44:26;;;;;;;1.42;1.30;;;;;;;;;;5037100;28;20033;-90
2023/06/18 13:46:51;;;;;;;1.88;1.67;;;;;;;;;;5037049;28;20032;-92
2023/06/18 13:49:17;;;;;;;1.25;1.13;;;;;;;;;;5050583;28;20025;-90
2023/06/18 13:51:42;;;;;;;2.10;1.63;;;;;;;;;;5035104;28;20040;-89
2023/06/18 13:54:11;;;;;;;2.50;1.83;;;;;;;;;;5036696;28;20028;-90
2023/06/18 13:56:37;;;;;;;;;;;;;;;;;;5049084;28;20433;-87
2023/06/18 13:59:02;;;;;;;1.95;1.42;;;;;;;;;;5065128;28;19978;-88
2023/06/18 14:01:28;;;;;;;2.50;2.30;;;;;;;;;;5036891;28;20040;-89
2023/06/18 14:03:53;;;;;;;1.73;1.35;;;;;;;;;;5031798;28;20091;-86
2023/06/18 14:06:19;;;;;;;1.98;1.70;;;;;;;;;;5052308;28;20057;-86
2023/06/18 14:08:44;;;;;;;2.25;1.80;;;;;;;;;;5047842;28;20560;-89
2023/06/18 14:11:10;;;;;;;1.83;1.27;;;;;;;;;;5054025;28;20090;-88
2023/06/18 14:13:36;;;;;;;1.63;1.30;;;;;;;;;;5053488;28;20025;-86
2023/06/18 14:16:05;;;;;;;2.00;1.38;;;;;;;;;;5036606;28;20476;-88
2023/06/18 14:18:31;;;;;;;1.30;1.10;;;;;;;;;;5031051;28;20480;-88
2023/06/18 14:20:56;;;;;;;1.83;1.67;;;;;;;;;;5036555;28;20095;-90
2023/06/18 14:23:22;;;;;;;2.38;1.77;;;;;;;;;;5031080;28;20504;-87
2023/06/18 14:25:47;;;;;;;1.35;1.08;;;;;;;;;;5023097;28;20389;-90
2023/06/18 14:28:13;;;;;;;1.88;1.48;;;;;;;;;;5025914;28;20522;-87
2023/06/18 14:30:38;;;;;;;1.88;1.42;;;;;;;;;;5052781;28;20071;-88
2023/06/18 14:33:05;;;;;;;1.90;1.40;;;;;;;;;;5034834;28;20059;-91
2023/06/18 14:35:30;;;;;;;1.45;1.33;;;;;;;;;;5052203;28;20479;-87
2023/06/18 14:37:56;;;;;;;1.95;1.60;;;;;;;;;;5051940;28;20112;-90
2023/06/18 14:40:22;;;;;;;1.55;1.13;;;;;;;;;;5051131;28;20021;-86
2023/06/18 14:42:48;;;;;;;1.73;1.42;;;;;;;;;;5049837;28;20029;-87
2023/06/18 14:45:13;;;;;;;2.13;1.70;;;;;;;;;;5030107;28;20611;-87
2023/06/18 14:47:40;;;;;;;1.63;1.40;;;;;;;;;;5052025;28;20021;-85
2023/06/18 14:50:10;;;;;;;1.63;1.38;;;;;;;;;;5051547;28;20485;-84
2023/06/18 14:52:36;;;;;;;1.90;1.40;;;;;;;;;;5049909;28;20029;-83
2023/06/18 14:55:02;;;;;;;1.77;1.10;;;;;;;;;;5032922;28;20039;-90
2023/06/18 14:57:27;;;;;;;2.28;1.60;;;;;;;;;;5030522;28;20033;-88
2023/06/18 14:59:55;;;;;;;2.83;1.88;;;;;;;;;;5050735;28;20028;-85
2023/06/18 15:02:21;;;;;;;1.20;0.93;;;;;;;;;;5052486;28;20028;-83
2023/06/18 15:04:46;;;;;;;1.30;1.05;;;;;;;;;;5053628;28;20063;-82
2023/06/18 15:07:12;;;;;;;1.92;1.35;;;;;;;;;;5048444;28;20047;-82